Time;durP1;ratioP1;P1;durP2;ratioP2;P2;SDS_P1;SDS_P2;PMS_P1;PMS_P2;Temp;Humidity;BMP_temperature;BMP_pressure;BME280_temperature;BME280_humidity;BME280_pressure;Samples;Min_cycle;Max_cycle;Signal;HPM_P1;HPM_P2
2023/05/18 00:01:34;;;;;;;8.17;2.23;;;9.00;95.20;;;;;;10512084;28;20231;-73
2023/05/18 00:06:36;;;;;;;11.40;2.70;;;8.90;95.70;;;;;;10512761;28;20334;-72
2023/05/18 00:11:39;;;;;;;7.10;2.90;;;8.90;96.20;;;;;;10520418;28;20317;-72
2023/05/18 00:16:40;;;;;;;5.50;2.23;;;8.80;96.70;;;;;;10518968;28;20229;-73
2023/05/18 00:21:42;;;;;;;8.50;2.73;;;8.80;97.20;;;;;;10494665;28;20230;-73
2023/05/18 00:26:48;;;;;;;7.23;3.03;;;8.60;97.60;;;;;;10503264;28;20214;-72
2023/05/18 00:31:48;;;;;;;10.90;3.20;;;8.60;98.10;;;;;;10499290;28;20252;-72
2023/05/18 00:36:49;;;;;;;10.20;3.10;;;8.60;98.40;;;;;;10495986;28;20222;-72
2023/05/18 00:41:52;;;;;;;14.20;4.23;;;8.60;98.80;;;;;;10519093;28;20282;-72
2023/05/18 00:46:53;;;;;;;13.97;4.07;;;8.60;99.20;;;;;;10516005;28;20246;-72
2023/05/18 00:51:54;;;;;;;15.70;4.20;;;8.60;99.30;;;;;;10522291;28;20222;-73
2023/05/18 00:56:55;;;;;;;11.17;2.83;;;8.50;99.60;;;;;;10503576;28;20254;-72
2023/05/18 01:01:56;;;;;;;11.30;3.17;;;8.60;99.80;;;;;;10510486;28;20249;-73
2023/05/18 01:06:57;;;;;;;11.33;2.67;;;8.50;99.90;;;;;;10504377;28;20653;-73
2023/05/18 01:12:39;;;;;;;10.33;2.60;;;8.50;99.90;;;;;;10498456;28;20712;-72
2023/05/18 01:17:46;;;;;;;14.00;3.30;;;8.40;99.90;;;;;;10397820;28;20773;-72
2023/05/18 01:23:19;;;;;;;7.83;2.70;;;8.30;99.90;;;;;;10509757;28;20238;-72
2023/05/18 01:28:31;;;;;;;9.37;2.80;;;8.20;99.90;;;;;;10510402;28;20306;-73
2023/05/18 01:33:32;;;;;;;9.93;3.93;;;8.10;99.90;;;;;;10528669;28;20618;-73
2023/05/18 01:38:32;;;;;;;12.40;4.00;;;8.10;99.90;;;;;;10490999;28;20223;-73
2023/05/18 01:43:35;;;;;;;12.93;4.17;;;8.10;99.90;;;;;;10516764;28;20223;-73
2023/05/18 01:48:38;;;;;;;10.47;3.33;;;8.10;99.90;;;;;;10516485;28;20223;-72
2023/05/18 01:53:49;;;;;;;7.90;2.90;;;8.00;99.90;;;;;;10503814;28;20218;-72
2023/05/18 01:58:53;;;;;;;8.83;3.23;;;7.90;99.90;;;;;;10510713;28;20242;-73
2023/05/18 02:03:57;;;;;;;9.90;2.87;;;7.80;99.90;;;;;;10512116;28;20694;-72
2023/05/18 02:08:58;;;;;;;8.57;3.33;;;7.70;99.90;;;;;;10502853;28;20231;-72
2023/05/18 02:14:00;;;;;;;10.30;3.47;;;7.70;99.90;;;;;;10511060;28;20288;-72
2023/05/18 02:19:00;;;;;;;11.00;3.20;;;7.70;99.90;;;;;;10492902;28;20777;-73
2023/05/18 02:24:01;;;;;;;13.97;3.97;;;7.70;99.90;;;;;;10492420;28;20310;-73
2023/05/18 02:29:02;;;;;;;11.77;4.10;;;7.60;99.90;;;;;;10510204;28;20309;-72
2023/05/18 02:34:03;;;;;;;12.97;4.70;;;7.60;99.90;;;;;;10508056;28;20761;-72
2023/05/18 02:39:05;;;;;;;11.80;3.53;;;7.60;99.90;;;;;;10506065;28;20284;-73
2023/05/18 02:44:06;;;;;;;15.37;4.23;;;7.60;99.90;;;;;;10509049;28;20215;-73
2023/05/18 02:49:06;;;;;;;14.57;4.07;;;7.60;99.90;;;;;;10499255;28;20223;-73
2023/05/18 02:54:07;;;;;;;15.57;4.80;;;7.50;99.90;;;;;;10492821;28;20234;-73
2023/05/18 02:59:07;;;;;;;14.30;4.00;;;7.50;99.90;;;;;;10516478;28;20223;-72
2023/05/18 03:04:08;;;;;;;13.90;3.03;;;7.40;99.90;;;;;;10494266;28;20223;-73
2023/05/18 03:09:08;;;;;;;10.33;3.57;;;7.30;99.90;;;;;;10505710;28;20211;-73
2023/05/18 03:14:09;;;;;;;10.30;2.83;;;7.20;99.90;;;;;;10505663;28;20313;-74
2023/05/18 03:19:12;;;;;;;6.13;2.90;;;7.20;99.90;;;;;;10516103;28;20778;-73
2023/05/18 03:24:14;;;;;;;8.47;3.50;;;7.10;99.90;;;;;;10508206;28;20214;-74
2023/05/18 03:29:15;;;;;;;11.53;3.10;;;7.20;99.90;;;;;;10525873;28;20226;-73
2023/05/18 03:34:16;;;;;;;8.17;2.70;;;7.20;99.90;;;;;;10521197;28;20275;-73
2023/05/18 03:39:17;;;;;;;8.57;3.03;;;7.20;99.90;;;;;;10509522;28;20233;-72
2023/05/18 03:44:17;;;;;;;9.27;3.50;;;7.20;99.90;;;;;;10522307;28;20222;-72
2023/05/18 03:49:18;;;;;;;14.13;3.50;;;7.20;99.90;;;;;;10519860;28;20642;-71
2023/05/18 03:54:19;;;;;;;17.47;3.93;;;7.20;99.90;;;;;;10511371;28;20211;-73
2023/05/18 03:59:20;;;;;;;14.90;4.20;;;7.20;99.90;;;;;;10518729;28;20226;-72
2023/05/18 04:04:21;;;;;;;14.73;4.10;;;7.20;99.90;;;;;;10521248;28;20245;-73
2023/05/18 04:09:22;;;;;;;13.03;3.97;;;7.20;99.90;;;;;;10526873;28;20223;-73
2023/05/18 04:14:26;;;;;;;15.97;3.60;;;7.30;99.90;;;;;;10494536;28;20223;-73
2023/05/18 04:19:27;;;;;;;8.63;3.10;;;7.30;99.90;;;;;;10519216;28;20296;-73
2023/05/18 04:24:31;;;;;;;10.87;2.87;;;7.30;99.90;;;;;;10493419;28;20356;-73
2023/05/18 04:29:32;;;;;;;14.07;3.20;;;7.40;99.90;;;;;;10509221;28;20227;-73
2023/05/18 04:34:37;;;;;;;7.87;2.57;;;7.50;99.90;;;;;;10527741;28;20309;-72
2023/05/18 04:39:38;;;;;;;6.77;2.70;;;7.60;99.90;;;;;;10511699;28;20279;-73
2023/05/18 04:44:39;;;;;;;6.97;2.43;;;7.70;99.90;;;;;;10499955;28;20222;-72
2023/05/18 04:49:39;;;;;;;8.63;3.20;;;7.90;99.90;;;;;;10511827;28;20222;-73
2023/05/18 04:54:40;;;;;;;6.27;2.80;;;8.30;99.90;;;;;;10520404;28;20636;-73
2023/05/18 04:59:41;;;;;;;9.53;2.73;;;8.80;99.90;;;;;;10512592;28;20230;-73
2023/05/18 05:04:41;;;;;;;14.30;2.90;;;9.70;99.90;;;;;;10496917;28;20206;-74
2023/05/18 05:09:42;;;;;;;14.73;3.47;;;10.10;99.90;;;;;;10515990;28;20303;-73
2023/05/18 05:14:43;;;;;;;10.17;3.43;;;10.20;99.90;;;;;;10526134;28;20313;-73
2023/05/18 05:19:43;;;;;;;13.30;3.80;;;9.60;99.90;;;;;;10497405;28;21007;-72
2023/05/18 05:24:44;;;;;;;7.43;3.23;;;9.30;99.90;;;;;;10509455;28;20207;-72
2023/05/18 05:29:46;;;;;;;8.37;2.67;;;9.20;99.90;;;;;;10506877;28;20712;-73
2023/05/18 05:34:49;;;;;;;8.20;2.50;;;9.20;99.90;;;;;;10508447;28;20238;-73
2023/05/18 05:39:49;;;;;;;4.80;1.87;;;9.90;99.90;;;;;;10515862;28;20304;-74
2023/05/18 05:44:50;;;;;;;7.80;2.50;;;12.40;99.90;;;;;;10498265;28;20211;-73
2023/05/18 05:49:51;;;;;;;5.87;2.23;;;13.90;99.30;;;;;;10490330;28;20224;-73
2023/05/18 05:54:51;;;;;;;7.07;2.20;;;14.70;96.00;;;;;;10521199;28;20702;-73
2023/05/18 05:59:52;;;;;;;5.83;2.10;;;15.50;93.10;;;;;;10512672;28;20218;-74
2023/05/18 06:04:52;;;;;;;8.07;2.30;;;16.30;90.10;;;;;;10510373;28;20223;-73
2023/05/18 06:09:53;;;;;;;9.37;2.57;;;16.40;86.90;;;;;;10511874;28;20230;-74
2023/05/18 06:14:56;;;;;;;5.60;2.30;;;16.50;84.10;;;;;;10515530;28;20379;-73
2023/05/18 06:19:57;;;;;;;6.20;2.63;;;17.40;81.60;;;;;;10492144;28;20565;-73
2023/05/18 06:24:58;;;;;;;7.53;2.20;;;18.30;76.80;;;;;;10515292;28;20214;-73
2023/05/18 06:29:58;;;;;;;6.77;2.17;;;18.80;73.10;;;;;;10493450;28;20325;-74
2023/05/18 06:34:59;;;;;;;11.27;2.77;;;19.10;69.80;;;;;;10509751;28;20219;-73
2023/05/18 06:40:03;;;;;;;7.20;2.40;;;19.80;66.80;;;;;;10510821;28;20325;-73
2023/05/18 06:45:05;;;;;;;6.10;2.20;;;20.10;64.10;;;;;;10510460;28;20230;-73
2023/05/18 06:50:09;;;;;;;6.50;2.43;;;20.30;61.50;;;;;;10510459;28;20687;-73
2023/05/18 06:55:09;;;;;;;6.50;2.40;;;20.40;60.20;;;;;;10510355;28;20332;-73
2023/05/18 07:00:11;;;;;;;6.60;2.43;;;20.40;60.80;;;;;;10489951;28;20244;-73
2023/05/18 07:05:15;;;;;;;5.63;2.17;;;21.10;58.60;;;;;;10505048;28;20649;-72
2023/05/18 07:10:16;;;;;;;9.10;2.63;;;20.90;57.50;;;;;;10497418;28;20185;-74
2023/05/18 07:15:16;;;;;;;6.00;2.23;;;21.70;56.70;;;;;;10513085;28;20190;-74
2023/05/18 07:20:17;;;;;;;6.87;1.90;;;21.70;56.00;;;;;;10504834;28;20229;-73
2023/05/18 07:25:18;;;;;;;6.47;2.60;;;21.80;55.60;;;;;;10494171;28;20339;-73
2023/05/18 07:30:19;;;;;;;5.23;2.33;;;21.90;54.80;;;;;;10491732;28;20198;-74
2023/05/18 07:35:20;;;;;;;6.80;2.63;;;21.70;54.10;;;;;;10511848;28;20198;-74
2023/05/18 07:40:21;;;;;;;7.03;2.33;;;22.00;53.90;;;;;;10520711;28;20209;-73
2023/05/18 07:45:22;;;;;;;6.93;2.17;;;21.80;52.90;;;;;;10520387;28;20178;-74
2023/05/18 07:50:23;;;;;;;8.00;2.73;;;22.40;52.80;;;;;;10501279;28;20642;-74
2023/05/18 07:55:26;;;;;;;5.20;2.47;;;22.80;52.00;;;;;;10511689;28;20194;-74
2023/05/18 08:00:27;;;;;;;6.07;2.30;;;23.70;51.00;;;;;;10508491;28;20234;-73
2023/05/18 08:05:28;;;;;;;7.80;2.53;;;24.40;49.10;;;;;;10512234;28;20215;-73
2023/05/18 08:10:31;;;;;;;5.33;2.23;;;24.30;48.80;;;;;;10512344;28;20219;-74
2023/05/18 08:15:32;;;;;;;6.23;2.60;;;25.80;45.70;;;;;;10511842;28;20265;-74
2023/05/18 08:20:33;;;;;;;8.40;2.67;;;25.00;46.30;;;;;;10519791;28;20331;-74
2023/05/18 08:25:34;;;;;;;6.67;2.73;;;25.00;45.70;;;;;;10518969;28;20309;-74
2023/05/18 08:30:34;;;;;;;8.87;2.30;;;24.90;45.00;;;;;;10493580;28;20728;-74
2023/05/18 08:35:35;;;;;;;7.40;2.67;;;24.30;47.10;;;;;;10501540;28;20249;-74
2023/05/18 08:40:57;;;;;;;7.67;2.53;;;25.20;45.50;;;;;;10507560;28;20241;-74
2023/05/18 08:46:09;;;;;;;6.77;2.90;;;26.00;45.50;;;;;;10495797;28;20222;-73
2023/05/18 08:51:11;;;;;;;7.13;2.50;;;26.50;43.60;;;;;;10495158;28;20850;-73
2023/05/18 08:56:13;;;;;;;6.20;3.47;;;25.80;42.90;;;;;;10500414;28;20231;-74
2023/05/18 09:01:13;;;;;;;11.93;2.73;;;27.00;42.70;;;;;;10515226;28;20230;-73
2023/05/18 09:06:14;;;;;;;7.47;2.70;;;29.50;40.50;;;;;;10491008;28;20681;-75
2023/05/18 09:11:17;;;;;;;7.40;2.30;;;30.20;37.40;;;;;;10504556;28;20243;-74
2023/05/18 09:16:18;;;;;;;6.17;2.20;;;29.40;38.00;;;;;;10514792;28;20657;-75
2023/05/18 09:21:18;;;;;;;5.30;2.40;;;31.10;36.70;;;;;;10517440;28;20237;-73
2023/05/18 09:26:21;;;;;;;6.40;2.50;;;29.50;36.50;;;;;;10492501;28;20224;-75
2023/05/18 09:31:26;;;;;;;6.10;2.53;;;31.10;36.20;;;;;;10525506;28;20215;-73
2023/05/18 09:36:31;;;;;;;6.80;2.47;;;31.40;32.10;;;;;;10500401;28;20234;-73
2023/05/18 09:41:31;;;;;;;9.10;3.00;;;26.40;38.20;;;;;;10508835;28;20704;-74
2023/05/18 09:52:48;;;;;;;7.10;2.70;;;26.50;37.90;;;;;;10503398;28;20218;-74
2023/05/18 09:57:49;;;;;;;9.10;2.60;;;25.50;37.90;;;;;;10496484;28;20238;-74
2023/05/18 10:02:51;;;;;;;5.53;2.47;;;25.50;39.80;;;;;;10513052;28;20241;-73
2023/05/18 10:07:55;;;;;;;6.67;2.53;;;24.20;41.60;;;;;;10491767;28;20225;-73
2023/05/18 10:12:57;;;;;;;7.73;2.53;;;24.90;41.30;;;;;;10511232;28;20595;-74
2023/05/18 10:18:01;;;;;;;6.67;2.53;;;27.10;38.30;;;;;;10510010;28;20225;-74
2023/05/18 10:23:05;;;;;;;11.60;2.83;;;26.30;38.90;;;;;;10510072;28;20215;-74
2023/05/18 10:28:08;;;;;;;5.57;2.40;;;27.00;38.20;;;;;;10514330;28;20341;-74
2023/05/18 10:33:09;;;;;;;6.63;2.83;;;28.00;35.30;;;;;;10514263;28;20300;-74
2023/05/18 10:38:20;;;;;;;7.37;2.87;;;28.10;34.70;;;;;;10511051;28;20248;-74
2023/05/18 10:43:26;;;;;;;8.57;2.70;;;28.20;35.60;;;;;;10508066;28;20264;-73
2023/05/18 10:48:28;;;;;;;8.80;2.83;;;28.90;35.70;;;;;;10513797;28;20302;-74
2023/05/18 10:53:29;;;;;;;9.13;3.00;;;28.60;35.50;;;;;;10513961;28;20885;-74
2023/05/18 10:58:31;;;;;;;7.03;2.70;;;28.70;35.90;;;;;;10506290;28;20309;-74
2023/05/18 11:03:32;;;;;;;7.07;2.63;;;28.50;34.10;;;;;;10513627;28;20317;-74
2023/05/18 11:08:33;;;;;;;4.90;2.47;;;28.70;34.50;;;;;;10522050;28;20214;-74
2023/05/18 11:13:37;;;;;;;6.70;2.70;;;29.00;32.80;;;;;;10514158;28;20253;-73
2023/05/18 11:18:43;;;;;;;5.93;2.47;;;28.50;33.10;;;;;;10506177;28;20231;-73
2023/05/18 11:24:22;;;;;;;9.63;2.80;;;28.50;33.70;;;;;;10518177;28;20242;-73
2023/05/18 11:30:04;;;;;;;11.80;3.00;;;28.80;33.40;;;;;;10514731;28;20243;-73
2023/05/18 11:35:09;;;;;;;8.33;2.57;;;27.70;33.70;;;;;;10496727;28;20246;-74
2023/05/18 11:40:34;;;;;;;8.00;2.37;;;26.80;35.90;;;;;;10505555;28;20241;-74
2023/05/18 11:45:55;;;;;;;7.03;2.33;;;24.60;39.50;;;;;;10503058;28;20219;-74
2023/05/18 11:50:56;;;;;;;8.20;2.67;;;22.80;42.70;;;;;;10497891;28;20948;-73
2023/05/18 11:56:02;;;;;;;6.37;2.73;;;21.50;44.70;;;;;;10498917;28;20565;-74
2023/05/18 12:01:22;;;;;;;8.90;2.37;;;21.20;46.30;;;;;;10498616;28;20609;-74
2023/05/18 12:06:25;;;;;;;7.63;2.40;;;21.20;46.70;;;;;;10495356;28;20234;-73
2023/05/18 12:11:25;;;;;;;9.10;2.67;;;21.10;46.00;;;;;;10518062;28;20246;-74
2023/05/18 12:16:26;;;;;;;9.10;2.83;;;21.40;46.50;;;;;;10519834;28;20237;-74
2023/05/18 12:21:26;;;;;;;7.07;2.90;;;20.90;47.10;;;;;;10512371;28;20310;-74
2023/05/18 12:26:28;;;;;;;8.20;2.13;;;20.70;47.70;;;;;;10499132;28;20693;-74
2023/05/18 12:31:29;;;;;;;8.37;2.30;;;20.40;47.80;;;;;;10518387;28;20851;-74
2023/05/18 12:36:39;;;;;;;5.63;2.27;;;20.70;46.90;;;;;;10510635;28;20698;-73
2023/05/18 12:41:40;;;;;;;10.47;2.50;;;20.40;47.60;;;;;;10511482;28;20228;-73
2023/05/18 12:46:42;;;;;;;6.33;2.27;;;20.30;47.90;;;;;;10517532;28;20211;-73
2023/05/18 12:51:42;;;;;;;6.73;2.27;;;20.20;47.20;;;;;;10509143;28;20576;-73
2023/05/18 12:57:15;;;;;;;7.63;2.40;;;20.30;46.90;;;;;;10518555;28;20221;-74
2023/05/18 13:02:33;;;;;;;10.87;2.67;;;20.10;47.60;;;;;;10521854;28;20237;-74
2023/05/18 13:07:39;;;;;;;5.67;2.37;;;19.90;47.90;;;;;;10515536;28;20249;-73
2023/05/18 13:12:40;;;;;;;5.00;2.30;;;19.80;49.50;;;;;;10504497;28;20811;-74
2023/05/18 13:17:55;;;;;;;7.97;2.30;;;19.70;48.00;;;;;;10509836;28;20222;-73
2023/05/18 13:22:58;;;;;;;5.30;2.27;;;19.90;49.10;;;;;;10530433;28;20289;-73
2023/05/18 13:27:59;;;;;;;7.47;2.57;;;19.60;47.50;;;;;;10515703;28;20294;-74
2023/05/18 13:33:00;;;;;;;5.83;2.70;;;19.10;49.20;;;;;;10520982;28;20276;-75
2023/05/18 13:38:00;;;;;;;7.00;2.07;;;19.30;49.80;;;;;;10511811;28;20276;-73
2023/05/18 13:43:06;;;;;;;8.20;2.23;;;19.20;50.40;;;;;;10507645;28;20642;-74
2023/05/18 13:48:08;;;;;;;5.63;2.67;;;19.20;49.40;;;;;;10510899;28;20314;-74
2023/05/18 13:53:09;;;;;;;8.10;2.73;;;19.40;50.60;;;;;;10523866;28;20230;-74
2023/05/18 13:58:10;;;;;;;6.30;2.17;;;19.60;50.80;;;;;;10514307;28;20313;-72
2023/05/18 14:03:14;;;;;;;8.30;2.03;;;20.00;48.90;;;;;;10492282;28;20211;-73
2023/05/18 14:08:14;;;;;;;7.13;2.60;;;20.20;48.80;;;;;;10507309;28;20219;-73
2023/05/18 14:13:15;;;;;;;3.73;1.80;;;20.40;48.30;;;;;;10512652;28;20305;-74
2023/05/18 14:18:15;;;;;;;5.60;1.90;;;20.30;49.00;;;;;;10506900;28;20348;-73
2023/05/18 14:23:16;;;;;;;7.50;2.20;;;20.20;48.40;;;;;;10508932;28;20207;-74
2023/05/18 14:28:16;;;;;;;8.97;2.70;;;19.40;48.90;;;;;;10494310;28;20311;-73
2023/05/18 14:33:17;;;;;;;7.60;2.80;;;19.10;50.30;;;;;;10506448;28;20222;-73
2023/05/18 14:38:25;;;;;;;7.17;2.33;;;19.10;50.60;;;;;;10493859;28;20229;-73
2023/05/18 14:43:26;;;;;;;5.23;2.07;;;19.30;49.70;;;;;;10512703;28;20280;-74
2023/05/18 14:48:26;;;;;;;7.67;2.03;;;19.20;49.30;;;;;;10492912;28;20229;-74
2023/05/18 14:53:27;;;;;;;6.67;2.10;;;19.40;50.10;;;;;;10504240;28;20725;-73
2023/05/18 14:58:27;;;;;;;8.53;2.10;;;19.30;49.30;;;;;;10492924;28;20222;-73
2023/05/18 15:03:28;;;;;;;6.43;1.87;;;19.00;50.80;;;;;;10511796;28;20218;-74
2023/05/18 15:08:28;;;;;;;8.63;2.40;;;19.20;50.50;;;;;;10509959;28;20230;-73
2023/05/18 15:13:29;;;;;;;8.57;2.30;;;19.50;50.30;;;;;;10527536;28;20253;-73
2023/05/18 15:18:29;;;;;;;6.13;2.37;;;19.60;49.20;;;;;;10503253;28;20673;-74
2023/05/18 15:23:31;;;;;;;6.43;2.17;;;19.10;50.20;;;;;;10521953;28;20262;-73
2023/05/18 15:28:31;;;;;;;7.87;2.33;;;18.90;51.00;;;;;;10503321;28;20845;-73
2023/05/18 15:33:34;;;;;;;7.03;2.23;;;19.00;51.20;;;;;;10475515;28;1067339;-72
2023/05/18 15:38:35;;;;;;;6.63;2.20;;;19.20;50.00;;;;;;10512845;28;20234;-74
2023/05/18 15:43:39;;;;;;;6.60;2.10;;;19.20;51.90;;;;;;10504544;28;20592;-74
2023/05/18 15:48:40;;;;;;;10.43;2.53;;;19.40;51.10;;;;;;10511985;28;20233;-74
2023/05/18 15:53:42;;;;;;;7.57;2.10;;;19.40;51.00;;;;;;10512297;28;20223;-72
2023/05/18 15:58:42;;;;;;;8.03;2.50;;;19.40;51.40;;;;;;10510629;28;20230;-73
2023/05/18 16:03:43;;;;;;;5.47;2.30;;;19.40;51.30;;;;;;10504285;28;20697;-74
2023/05/18 16:08:44;;;;;;;5.17;2.23;;;19.20;51.20;;;;;;10511246;28;20223;-72
2023/05/18 16:13:49;;;;;;;7.37;2.20;;;19.00;50.30;;;;;;10505215;28;20219;-73
2023/05/18 16:18:50;;;;;;;5.67;2.07;;;18.70;50.40;;;;;;10509723;28;20283;-73
2023/05/18 16:23:50;;;;;;;6.90;2.30;;;18.70;51.20;;;;;;10495805;28;20266;-72
2023/05/18 16:28:51;;;;;;;6.17;2.60;;;18.90;51.80;;;;;;10498504;28;20332;-72
2023/05/18 16:33:51;;;;;;;4.80;2.13;;;19.20;52.50;;;;;;10512676;28;20317;-73
2023/05/18 16:38:52;;;;;;;4.93;2.00;;;19.30;52.00;;;;;;10519088;28;20318;-73
2023/05/18 16:43:53;;;;;;;6.37;2.47;;;19.40;51.90;;;;;;10516155;28;20226;-72
2023/05/18 16:48:53;;;;;;;8.67;2.30;;;19.30;52.20;;;;;;10510602;28;20270;-73
2023/05/18 16:53:54;;;;;;;6.97;2.20;;;19.00;52.10;;;;;;10494859;28;20273;-73
2023/05/18 16:58:55;;;;;;;5.07;2.33;;;19.20;52.40;;;;;;10515488;28;20231;-74
2023/05/18 17:03:56;;;;;;;4.40;2.00;;;19.50;53.90;;;;;;10500291;28;20211;-74
2023/05/18 17:08:56;;;;;;;9.73;2.30;;;19.30;53.80;;;;;;10512446;28;20225;-73
2023/05/18 17:14:00;;;;;;;7.73;2.53;;;19.20;55.50;;;;;;10498549;28;20222;-73
2023/05/18 17:19:00;;;;;;;7.27;2.33;;;19.00;55.40;;;;;;10516863;28;20245;-74
2023/05/18 17:24:01;;;;;;;8.70;2.60;;;18.70;56.50;;;;;;10524829;28;20720;-73
2023/05/18 17:29:02;;;;;;;7.03;2.37;;;18.60;57.30;;;;;;10512104;28;20222;-73
2023/05/18 17:34:02;;;;;;;8.23;2.50;;;18.60;58.20;;;;;;10489417;28;20226;-72
2023/05/18 17:39:03;;;;;;;9.50;2.50;;;18.50;58.70;;;;;;10497728;28;20226;-73
2023/05/18 17:44:04;;;;;;;8.17;2.33;;;18.20;59.30;;;;;;10511973;28;20214;-74
2023/05/18 17:49:04;;;;;;;5.80;2.23;;;18.00;59.70;;;;;;10493556;28;20229;-73
2023/05/18 17:54:05;;;;;;;8.83;2.73;;;17.90;60.10;;;;;;10511996;28;20217;-73
2023/05/18 17:59:06;;;;;;;6.27;2.23;;;17.90;60.50;;;;;;10497716;28;20229;-73
2023/05/18 18:04:07;;;;;;;8.40;2.43;;;17.90;60.20;;;;;;10500344;28;20218;-73
2023/05/18 18:09:07;;;;;;;6.77;1.93;;;17.90;59.80;;;;;;10512308;28;20248;-74
2023/05/18 18:14:10;;;;;;;5.03;2.40;;;17.90;59.90;;;;;;10511051;28;20313;-73
2023/05/18 18:19:10;;;;;;;5.83;2.40;;;17.70;60.30;;;;;;10512061;28;20268;-73
2023/05/18 18:24:12;;;;;;;11.57;2.50;;;17.70;60.40;;;;;;10509422;28;20222;-72
2023/05/18 18:29:13;;;;;;;5.63;2.23;;;17.50;60.50;;;;;;10511601;28;20233;-73
2023/05/18 18:34:13;;;;;;;5.57;2.00;;;17.20;61.20;;;;;;10496469;28;20251;-74
2023/05/18 18:39:14;;;;;;;6.87;2.20;;;17.00;62.10;;;;;;10496287;28;20229;-73
2023/05/18 18:44:17;;;;;;;8.77;2.10;;;16.90;63.00;;;;;;10511480;28;20224;-75
2023/05/18 18:49:18;;;;;;;4.97;2.23;;;16.70;64.00;;;;;;10489483;28;20345;-74
2023/05/18 18:54:18;;;;;;;6.20;1.90;;;16.60;64.30;;;;;;10511202;28;20684;-73
2023/05/18 18:59:19;;;;;;;7.97;2.40;;;16.50;65.00;;;;;;10507289;28;20808;-73
2023/05/18 19:04:19;;;;;;;6.83;2.20;;;16.30;65.20;;;;;;10511003;28;20211;-73
2023/05/18 19:09:21;;;;;;;7.00;2.10;;;16.30;66.00;;;;;;10519077;28;20218;-72
2023/05/18 19:14:22;;;;;;;5.73;2.50;;;16.30;66.40;;;;;;10510178;28;20215;-72
2023/05/18 19:19:22;;;;;;;5.50;2.20;;;16.10;66.30;;;;;;10494992;28;20222;-73
2023/05/18 19:24:23;;;;;;;5.00;2.03;;;16.00;66.50;;;;;;10501542;28;20305;-73
2023/05/18 19:29:27;;;;;;;5.50;1.70;;;15.80;66.90;;;;;;10504855;28;20246;-74
2023/05/18 19:34:28;;;;;;;7.50;2.13;;;15.60;67.50;;;;;;10495122;28;20214;-73
2023/05/18 19:39:28;;;;;;;10.37;2.47;;;15.50;68.30;;;;;;10487393;28;20223;-74
2023/05/18 19:44:30;;;;;;;8.23;2.20;;;15.40;68.90;;;;;;10512218;28;20570;-74
2023/05/18 19:49:30;;;;;;;6.57;1.87;;;15.30;69.40;;;;;;10487376;28;20249;-73
2023/05/18 19:54:31;;;;;;;5.50;1.67;;;15.10;70.20;;;;;;10512127;28;20703;-73
2023/05/18 19:59:34;;;;;;;4.57;1.70;;;15.00;70.50;;;;;;10511822;28;20217;-73
2023/05/18 20:04:35;;;;;;;5.93;2.63;;;14.90;71.40;;;;;;10512308;28;20223;-73
2023/05/18 20:09:35;;;;;;;4.37;1.63;;;14.80;71.70;;;;;;10523289;28;20211;-73
2023/05/18 20:14:37;;;;;;;7.20;2.30;;;14.60;72.20;;;;;;10502425;28;20218;-73
2023/05/18 20:19:48;;;;;;;5.50;2.00;;;14.60;72.70;;;;;;10519573;28;20223;-73
2023/05/18 20:24:49;;;;;;;5.53;2.30;;;14.40;73.00;;;;;;10505110;28;20215;-74
2023/05/18 20:29:49;;;;;;;9.90;2.37;;;14.40;73.20;;;;;;10500830;28;20222;-74
2023/05/18 20:34:50;;;;;;;4.10;1.93;;;14.30;73.50;;;;;;10515922;28;20210;-73
2023/05/18 20:39:51;;;;;;;7.63;2.20;;;14.20;74.00;;;;;;10513522;28;20237;-74
2023/05/18 20:44:51;;;;;;;8.90;2.23;;;14.20;74.10;;;;;;10499704;28;20284;-73
2023/05/18 20:49:52;;;;;;;7.93;2.37;;;14.10;74.40;;;;;;10504167;28;20222;-72
2023/05/18 20:54:53;;;;;;;8.67;2.87;;;14.00;74.60;;;;;;10515951;28;20222;-72
2023/05/18 20:59:56;;;;;;;10.33;2.80;;;14.00;74.90;;;;;;10494896;28;20623;-72
2023/05/18 21:04:57;;;;;;;10.37;2.77;;;13.90;75.10;;;;;;10510077;28;20235;-74
2023/05/18 21:09:58;;;;;;;10.67;2.87;;;13.80;75.30;;;;;;10496615;28;20709;-73
2023/05/18 21:14:58;;;;;;;4.70;2.10;;;13.70;75.50;;;;;;10498825;28;20721;-72
2023/05/18 21:19:59;;;;;;;5.60;1.90;;;13.60;76.00;;;;;;10503786;28;20243;-73
2023/05/18 21:25:00;;;;;;;4.40;1.97;;;13.60;76.40;;;;;;10520796;28;20207;-73
2023/05/18 21:30:00;;;;;;;4.80;2.00;;;13.40;76.80;;;;;;10527077;28;20309;-72
2023/05/18 21:35:01;;;;;;;11.23;2.53;;;13.40;77.30;;;;;;10494799;28;20223;-72
2023/05/18 21:40:02;;;;;;;4.50;1.87;;;13.30;77.70;;;;;;10497209;28;20313;-73
2023/05/18 21:45:03;;;;;;;7.83;2.03;;;13.20;78.10;;;;;;10490145;28;20219;-72
2023/05/18 21:50:04;;;;;;;3.37;1.63;;;13.10;78.60;;;;;;10512092;28;20224;-73
2023/05/18 21:55:05;;;;;;;5.33;2.27;;;13.10;78.90;;;;;;10509071;28;20281;-74
2023/05/18 22:00:06;;;;;;;5.53;1.70;;;13.00;79.10;;;;;;10519173;28;20226;-73
2023/05/18 22:05:08;;;;;;;5.20;2.40;;;12.90;79.70;;;;;;10511354;28;20191;-73
2023/05/18 22:10:09;;;;;;;5.10;2.30;;;12.90;80.10;;;;;;10496443;28;20227;-73
2023/05/18 22:15:10;;;;;;;4.80;1.90;;;12.80;80.40;;;;;;10512104;28;20273;-73
2023/05/18 22:20:11;;;;;;;3.93;2.03;;;12.70;80.70;;;;;;10509142;28;20297;-73
2023/05/18 22:25:12;;;;;;;8.50;2.40;;;12.70;81.10;;;;;;10515193;28;20618;-73
2023/05/18 22:30:13;;;;;;;8.23;3.30;;;12.70;81.70;;;;;;10511942;28;20580;-72
2023/05/18 22:35:14;;;;;;;9.47;2.47;;;12.60;82.40;;;;;;10497195;28;20189;-73
2023/05/18 22:40:15;;;;;;;6.20;2.93;;;12.40;83.50;;;;;;10490682;28;20219;-73
2023/05/18 22:45:15;;;;;;;6.27;2.60;;;12.40;84.40;;;;;;10512587;28;20186;-73
2023/05/18 22:50:16;;;;;;;6.60;2.27;;;12.10;85.20;;;;;;10508295;28;20245;-73
2023/05/18 22:55:17;;;;;;;6.80;2.20;;;12.00;85.90;;;;;;10502163;28;20187;-72
2023/05/18 23:00:18;;;;;;;5.67;1.83;;;11.90;86.80;;;;;;10493630;28;20234;-73
2023/05/18 23:05:18;;;;;;;5.63;1.80;;;11.80;87.60;;;;;;10492482;28;20649;-73
2023/05/18 23:10:19;;;;;;;7.27;2.40;;;11.70;88.10;;;;;;10502703;28;20193;-73
2023/05/18 23:15:20;;;;;;;5.97;2.63;;;11.60;88.70;;;;;;10512364;28;20209;-72
2023/05/18 23:20:24;;;;;;;6.30;2.37;;;11.60;89.50;;;;;;10494518;28;20218;-72
2023/05/18 23:25:24;;;;;;;5.37;2.27;;;11.40;89.90;;;;;;10507299;28;20175;-73
2023/05/18 23:30:25;;;;;;;6.63;2.20;;;11.40;90.30;;;;;;10507565;28;20226;-73
2023/05/18 23:35:26;;;;;;;5.80;2.03;;;11.30;90.60;;;;;;10495238;28;20178;-72
2023/05/18 23:40:27;;;;;;;4.73;2.03;;;11.20;90.90;;;;;;10522110;28;20233;-73
2023/05/18 23:45:28;;;;;;;5.17;1.90;;;11.10;91.30;;;;;;10518814;28;20609;-73
2023/05/18 23:50:29;;;;;;;8.40;2.97;;;11.10;91.70;;;;;;10520007;28;20183;-73
2023/05/18 23:55:32;;;;;;;6.40;2.00;;;11.00;92.20;;;;;;10520610;28;20293;-72
